Current | Forecast
Updated: 7:20 PM BST on August 22, 2017
Observed at Stornoway, United Kingdom
Temperature 63°F
Humidity 88%
Dew Point 59°F
Wind Variable at 2 mph
Pressure 29.95 in (Steady)
Conditions Partly Cloudy
Visibility 6.2 miles
UV 0 out of 16
Clouds (FEW) : 800 ft
Yesterday's Maximum 63°F
Yesterday's Minimum 43°F approx.
Yesterday's Heating Degree Days 12 approx.
Sunrise5:57 AM BST
Sunset8:47 PM BST
Moon Rise6:37 AM BST
Moon Set9:10 PM BST
Moon PhaseMoon Phase
New Moon
Raw METARMETAR EGPO 221820Z VRB02KT 9999 FEW008 17/15 Q1014


Monday
. High: 44° F.
Tuesday
. High: 50° F.
Wednesday
. High: 48° F.
Thursday
. High: 46° F.
Friday
. High: 48° F.
Saturday
. High: 42° F.
Sunday
. High: 44° F.
Monday
. High: 48° F.

Units: English | Metric

Find the Weather for any City, State or Zipcode, or Country:

U.S. State List | Severe Weather | Tropical Storms | Ski Conditions
United States | Canada | Central America | South America | Asia | Europe | Australia | Africa | Islands

Weather Underground

© Copyright 2017
The Weather Company, LLC